Time;durP1;ratioP1;P1;durP2;ratioP2;P2;SDS_P1;SDS_P2;PMS_P1;PMS_P2;Temp;Humidity;BMP_temperature;BMP_pressure;BME280_temperature;BME280_humidity;BME280_pressure;Samples;Min_cycle;Max_cycle;Signal;HPM_P1;HPM_P2
2022/07/07 00:01:07;;;;;;;9.65;7.78;;;;;;;;;;5032356;28;20044;-80
2022/07/07 00:03:32;;;;;;;7.85;7.10;;;;;;;;;;5033662;28;20040;-81
2022/07/07 00:05:58;;;;;;;8.48;7.20;;;;;;;;;;5034286;28;20385;-81
2022/07/07 00:08:23;;;;;;;8.80;7.53;;;;;;;;;;5033400;28;20136;-81
2022/07/07 00:10:49;;;;;;;8.73;7.82;;;;;;;;;;5033751;28;20115;-81
2022/07/07 00:13:14;;;;;;;10.90;8.50;;;;;;;;;;5033484;28;20116;-80
2022/07/07 00:15:42;;;;;;;9.40;7.88;;;;;;;;;;5033523;28;20060;-81
2022/07/07 00:18:07;;;;;;;9.02;8.13;;;;;;;;;;5033180;28;20021;-80
2022/07/07 00:20:33;;;;;;;8.85;7.97;;;;;;;;;;5032193;28;20369;-81
2022/07/07 00:22:58;;;;;;;8.93;7.85;;;;;;;;;;5033212;28;20026;-80
2022/07/07 00:25:24;;;;;;;9.45;7.95;;;;;;;;;;5033821;28;20037;-81
2022/07/07 00:27:49;;;;;;;11.10;8.13;;;;;;;;;;5033191;28;20476;-81
2022/07/07 00:30:15;;;;;;;8.65;7.30;;;;;;;;;;5032188;28;20042;-81
2022/07/07 00:32:40;;;;;;;9.45;8.32;;;;;;;;;;5032772;28;20074;-82
2022/07/07 00:35:06;;;;;;;8.88;7.97;;;;;;;;;;5012580;28;20057;-81
2022/07/07 00:37:32;;;;;;;10.15;8.18;;;;;;;;;;5030328;28;20040;-80
2022/07/07 00:39:57;;;;;;;9.23;8.32;;;;;;;;;;5046024;28;20030;-80
2022/07/07 00:42:23;;;;;;;8.35;7.43;;;;;;;;;;5033201;28;20029;-79
2022/07/07 00:44:48;;;;;;;8.85;7.88;;;;;;;;;;5032149;28;20037;-80
2022/07/07 00:47:14;;;;;;;8.13;7.32;;;;;;;;;;5032883;28;20026;-80
2022/07/07 00:49:40;;;;;;;9.30;8.00;;;;;;;;;;5031595;28;20041;-81
2022/07/07 00:52:07;;;;;;;8.32;7.47;;;;;;;;;;5032103;28;20338;-79
2022/07/07 00:54:32;;;;;;;8.52;7.50;;;;;;;;;;5028136;28;20093;-80
2022/07/07 00:56:58;;;;;;;9.38;7.68;;;;;;;;;;5051950;28;20396;-80
2022/07/07 00:59:23;;;;;;;9.18;7.65;;;;;;;;;;5038812;28;20044;-80
2022/07/07 01:01:49;;;;;;;9.40;7.85;;;;;;;;;;5050108;28;20029;-80
2022/07/07 01:04:17;;;;;;;9.02;7.88;;;;;;;;;;5032575;28;20037;-79
2022/07/07 01:06:42;;;;;;;13.40;8.40;;;;;;;;;;5012160;28;20037;-79
2022/07/07 01:09:07;;;;;;;9.27;7.60;;;;;;;;;;5049784;28;20057;-80
2022/07/07 01:11:45;;;;;;;9.43;7.60;;;;;;;;;;5051798;28;20045;-81
2022/07/07 01:14:11;;;;;;;10.57;8.20;;;;;;;;;;5018760;28;20120;-81
2022/07/07 01:16:36;;;;;;;9.50;7.82;;;;;;;;;;5043722;28;20063;-80
2022/07/07 01:19:02;;;;;;;9.88;8.00;;;;;;;;;;5052078;28;20037;-81
2022/07/07 01:21:27;;;;;;;8.48;7.68;;;;;;;;;;5050428;28;20492;-79
2022/07/07 01:23:53;;;;;;;11.98;8.18;;;;;;;;;;5043444;28;20038;-80
2022/07/07 01:26:18;;;;;;;8.70;7.80;;;;;;;;;;5012330;28;20029;-80
2022/07/07 01:28:44;;;;;;;10.90;7.63;;;;;;;;;;5051468;28;20044;-81
2022/07/07 01:31:10;;;;;;;9.30;8.40;;;;;;;;;;5049989;28;20040;-80
2022/07/07 01:33:35;;;;;;;9.27;8.27;;;;;;;;;;5051944;28;20523;-80
2022/07/07 01:36:01;;;;;;;11.13;8.10;;;;;;;;;;5033445;28;20025;-81
2022/07/07 01:38:26;;;;;;;9.43;8.50;;;;;;;;;;5031378;28;20474;-80
2022/07/07 01:40:52;;;;;;;8.63;7.82;;;;;;;;;;5032614;28;20040;-80
2022/07/07 01:43:17;;;;;;;9.88;8.15;;;;;;;;;;5031812;28;20550;-81
2022/07/07 01:45:42;;;;;;;10.90;8.40;;;;;;;;;;5015227;28;20488;-80
2022/07/07 01:48:08;;;;;;;10.70;8.40;;;;;;;;;;5033290;28;20045;-80
2022/07/07 01:50:33;;;;;;;10.07;8.93;;;;;;;;;;5033311;28;20025;-80
2022/07/07 01:52:59;;;;;;;9.60;8.70;;;;;;;;;;5031672;28;20793;-81
2022/07/07 01:55:24;;;;;;;9.32;8.02;;;;;;;;;;5033099;28;20041;-80
2022/07/07 01:57:50;;;;;;;12.40;8.73;;;;;;;;;;5032386;28;20041;-81
2022/07/07 02:00:16;;;;;;;11.48;8.88;;;;;;;;;;5031640;28;20389;-81
2022/07/07 02:02:41;;;;;;;9.13;8.15;;;;;;;;;;5031923;28;20041;-80
2022/07/07 02:05:07;;;;;;;8.90;7.97;;;;;;;;;;5014874;28;20037;-80
2022/07/07 02:07:34;;;;;;;12.90;8.65;;;;;;;;;;5012147;28;20029;-81
2022/07/07 02:10:00;;;;;;;10.18;7.47;;;;;;;;;;5025602;28;20397;-80
2022/07/07 02:12:25;;;;;;;9.32;7.72;;;;;;;;;;5032356;28;20044;-80
2022/07/07 02:14:51;;;;;;;8.35;7.55;;;;;;;;;;5031270;28;20033;-81
2022/07/07 02:17:17;;;;;;;9.55;7.32;;;;;;;;;;5034752;28;20031;-80
2022/07/07 02:19:43;;;;;;;8.35;7.53;;;;;;;;;;5036839;28;20095;-80
2022/07/07 02:22:09;;;;;;;8.93;8.00;;;;;;;;;;5037602;28;20033;-81
2022/07/07 02:24:34;;;;;;;9.57;7.68;;;;;;;;;;5035882;28;20033;-81
2022/07/07 02:26:59;;;;;;;9.27;8.05;;;;;;;;;;5016040;28;20475;-81
2022/07/07 02:29:25;;;;;;;11.07;8.27;;;;;;;;;;5027529;28;20033;-80
2022/07/07 02:31:51;;;;;;;12.25;8.18;;;;;;;;;;5035294;28;20435;-82
2022/07/07 02:34:16;;;;;;;9.52;8.18;;;;;;;;;;5035118;28;20080;-81
2022/07/07 02:36:42;;;;;;;11.02;8.20;;;;;;;;;;5036464;28;20087;-81
2022/07/07 02:39:07;;;;;;;9.50;8.25;;;;;;;;;;5017719;28;20048;-81
2022/07/07 02:41:32;;;;;;;10.20;8.13;;;;;;;;;;5033782;28;20480;-81
2022/07/07 02:43:58;;;;;;;10.63;8.15;;;;;;;;;;5035208;28;20029;-81
2022/07/07 02:46:23;;;;;;;11.52;8.27;;;;;;;;;;5034025;28;20037;-81
2022/07/07 02:48:49;;;;;;;10.38;8.20;;;;;;;;;;5035066;28;20095;-80
2022/07/07 02:51:14;;;;;;;9.15;8.05;;;;;;;;;;5033557;28;20025;-81
2022/07/07 02:53:40;;;;;;;10.25;8.07;;;;;;;;;;5045166;28;20048;-81
2022/07/07 02:56:05;;;;;;;10.32;8.18;;;;;;;;;;5052853;28;20124;-80
2022/07/07 02:58:31;;;;;;;12.30;9.10;;;;;;;;;;5053279;28;20035;-81
2022/07/07 03:00:57;;;;;;;8.95;8.05;;;;;;;;;;5054106;28;20090;-81
2022/07/07 03:03:22;;;;;;;10.00;8.52;;;;;;;;;;5053327;28;20029;-80
2022/07/07 03:05:48;;;;;;;11.75;8.65;;;;;;;;;;5035998;28;20033;-80
2022/07/07 03:08:13;;;;;;;11.38;8.25;;;;;;;;;;5054076;28;20057;-81
2022/07/07 03:10:39;;;;;;;9.45;8.55;;;;;;;;;;5036974;28;20059;-80
2022/07/07 03:13:04;;;;;;;12.60;8.48;;;;;;;;;;5013673;28;20030;-81
2022/07/07 03:15:30;;;;;;;9.30;8.35;;;;;;;;;;5032415;28;20079;-81
2022/07/07 03:17:56;;;;;;;10.02;9.02;;;;;;;;;;5027640;28;20480;-80
2022/07/07 03:20:21;;;;;;;10.95;8.38;;;;;;;;;;5052514;28;20044;-79
2022/07/07 03:22:47;;;;;;;10.00;8.98;;;;;;;;;;5036574;28;20037;-80
2022/07/07 03:25:12;;;;;;;9.30;8.40;;;;;;;;;;5048965;28;20051;-80
2022/07/07 03:27:37;;;;;;;11.40;9.13;;;;;;;;;;5034789;28;20029;-80
2022/07/07 03:30:03;;;;;;;11.00;7.75;;;;;;;;;;5050156;28;20043;-80
2022/07/07 03:32:29;;;;;;;10.23;8.02;;;;;;;;;;5022739;28;20025;-81
2022/07/07 03:34:54;;;;;;;12.40;8.40;;;;;;;;;;5041550;28;20084;-80
2022/07/07 03:37:20;;;;;;;10.02;8.30;;;;;;;;;;5040330;28;20022;-81
2022/07/07 03:39:45;;;;;;;8.95;7.85;;;;;;;;;;5037193;28;20466;-79
2022/07/07 03:42:11;;;;;;;10.02;8.25;;;;;;;;;;5043333;28;20128;-80
2022/07/07 03:44:36;;;;;;;10.15;7.82;;;;;;;;;;5050661;28;20103;-80
2022/07/07 03:47:02;;;;;;;9.55;8.20;;;;;;;;;;5042168;28;20036;-81
2022/07/07 03:49:28;;;;;;;10.25;8.52;;;;;;;;;;5007205;28;20045;-80
2022/07/07 03:51:53;;;;;;;12.50;8.65;;;;;;;;;;5042875;28;20025;-82
2022/07/07 03:54:18;;;;;;;13.48;8.77;;;;;;;;;;5048924;28;20035;-82
2022/07/07 03:56:44;;;;;;;12.18;8.75;;;;;;;;;;5051009;28;20031;-80
2022/07/07 03:59:09;;;;;;;10.55;8.48;;;;;;;;;;5028675;28;20397;-82
2022/07/07 04:01:36;;;;;;;10.63;8.15;;;;;;;;;;5051224;28;20152;-81
2022/07/07 04:04:02;;;;;;;11.82;9.02;;;;;;;;;;5048276;28;20041;-81
2022/07/07 04:06:30;;;;;;;11.15;8.55;;;;;;;;;;5051001;28;20033;-81
2022/07/07 04:08:55;;;;;;;10.15;8.80;;;;;;;;;;5047475;28;20592;-81
2022/07/07 04:11:21;;;;;;;9.18;8.25;;;;;;;;;;5050620;28;20025;-80
2022/07/07 04:13:46;;;;;;;10.00;8.00;;;;;;;;;;5047847;28;20037;-82
2022/07/07 04:16:12;;;;;;;10.20;8.38;;;;;;;;;;5033348;28;20506;-81
2022/07/07 04:18:37;;;;;;;15.50;12.23;;;;;;;;;;5030150;28;20029;-80
2022/07/07 04:21:03;;;;;;;11.38;8.95;;;;;;;;;;5040205;28;20047;-82
2022/07/07 04:23:28;;;;;;;11.50;8.23;;;;;;;;;;5050574;28;20033;-82
2022/07/07 04:25:54;;;;;;;12.35;8.48;;;;;;;;;;5033382;28;20499;-80
2022/07/07 04:28:19;;;;;;;9.52;7.90;;;;;;;;;;5032195;28;20029;-81
2022/07/07 04:30:45;;;;;;;11.57;8.18;;;;;;;;;;5051398;28;20108;-82
2022/07/07 04:33:10;;;;;;;12.13;8.40;;;;;;;;;;5038189;28;20534;-82
2022/07/07 04:35:36;;;;;;;11.75;8.15;;;;;;;;;;5050296;28;20025;-82
2022/07/07 04:38:01;;;;;;;10.48;7.60;;;;;;;;;;5020267;28;20037;-80
2022/07/07 04:40:27;;;;;;;8.80;7.90;;;;;;;;;;5051224;28;20029;-82
2022/07/07 04:42:52;;;;;;;14.68;9.13;;;;;;;;;;5051980;28;20040;-82
2022/07/07 04:45:18;;;;;;;9.68;8.38;;;;;;;;;;5033610;28;20048;-82
2022/07/07 04:47:43;;;;;;;9.75;7.88;;;;;;;;;;5049692;28;20030;-82
2022/07/07 04:50:09;;;;;;;8.80;7.90;;;;;;;;;;5034353;28;20115;-81
2022/07/07 04:52:35;;;;;;;9.60;7.75;;;;;;;;;;5049679;28;20029;-81
2022/07/07 04:55:00;;;;;;;11.40;7.63;;;;;;;;;;5033914;28;20029;-85
2022/07/07 04:57:26;;;;;;;9.30;7.47;;;;;;;;;;5032498;28;20026;-83
2022/07/07 04:59:51;;;;;;;9.32;7.60;;;;;;;;;;5050098;28;20033;-82
2022/07/07 05:02:17;;;;;;;8.27;7.00;;;;;;;;;;5050660;28;20121;-81
2022/07/07 05:04:42;;;;;;;13.02;9.07;;;;;;;;;;5051432;28;20040;-83
2022/07/07 05:07:08;;;;;;;9.30;7.63;;;;;;;;;;5049353;28;20108;-81
2022/07/07 05:09:34;;;;;;;10.90;7.28;;;;;;;;;;5051136;28;20049;-82
2022/07/07 05:12:01;;;;;;;8.43;6.80;;;;;;;;;;5049519;28;20116;-82
2022/07/07 05:14:26;;;;;;;9.25;7.05;;;;;;;;;;5050118;28;20044;-81
2022/07/07 05:16:51;;;;;;;7.55;6.80;;;;;;;;;;5050012;28;20037;-80
2022/07/07 05:19:17;;;;;;;8.40;6.45;;;;;;;;;;5050941;28;20490;-83
2022/07/07 05:21:42;;;;;;;8.80;6.75;;;;;;;;;;5049467;28;20041;-81
2022/07/07 05:24:08;;;;;;;8.38;6.75;;;;;;;;;;5033691;28;20093;-81
2022/07/07 05:26:33;;;;;;;10.02;9.02;;;;;;;;;;5049429;28;20454;-82
2022/07/07 05:28:59;;;;;;;9.27;7.20;;;;;;;;;;5032898;28;20028;-82
2022/07/07 05:31:24;;;;;;;9.80;7.25;;;;;;;;;;5049939;28;20037;-81
2022/07/07 05:33:49;;;;;;;9.70;6.95;;;;;;;;;;5049795;28;20021;-81
2022/07/07 05:36:15;;;;;;;8.73;6.60;;;;;;;;;;5048285;28;20442;-82
2022/07/07 05:38:40;;;;;;;11.27;6.80;;;;;;;;;;5030144;28;20028;-82
2022/07/07 05:41:06;;;;;;;7.07;6.38;;;;;;;;;;5031225;28;20048;-82
2022/07/07 05:43:31;;;;;;;9.05;6.85;;;;;;;;;;5039781;28;20021;-82
2022/07/07 05:45:57;;;;;;;8.98;6.30;;;;;;;;;;5049363;28;20032;-84
2022/07/07 05:48:22;;;;;;;8.63;6.57;;;;;;;;;;5049963;28;20021;-81
2022/07/07 05:50:48;;;;;;;7.25;6.53;;;;;;;;;;5033420;28;20037;-82
2022/07/07 05:53:13;;;;;;;8.23;6.32;;;;;;;;;;5055577;28;20479;-82
2022/07/07 05:55:39;;;;;;;9.68;6.25;;;;;;;;;;5036338;28;20124;-83
2022/07/07 05:58:05;;;;;;;8.77;6.00;;;;;;;;;;5035949;28;20481;-81
2022/07/07 06:00:30;;;;;;;8.57;6.15;;;;;;;;;;5033927;28;20047;-83
2022/07/07 06:02:56;;;;;;;8.63;6.57;;;;;;;;;;5041754;28;20036;-81
2022/07/07 06:05:22;;;;;;;10.98;7.00;;;;;;;;;;5054944;28;20395;-84
2022/07/07 06:07:47;;;;;;;10.68;6.57;;;;;;;;;;5047530;28;20400;-83
2022/07/07 06:10:14;;;;;;;12.30;6.38;;;;;;;;;;5034618;28;20030;-82
2022/07/07 06:12:39;;;;;;;8.77;6.10;;;;;;;;;;5042047;28;20013;-81
2022/07/07 06:15:05;;;;;;;9.70;6.38;;;;;;;;;;5053611;28;20689;-82
2022/07/07 06:17:31;;;;;;;9.93;6.13;;;;;;;;;;5053291;28;20029;-82
2022/07/07 06:19:57;;;;;;;7.25;6.47;;;;;;;;;;5052364;28;20457;-85
2022/07/07 06:22:22;;;;;;;8.45;6.55;;;;;;;;;;5053403;28;20505;-82
2022/07/07 06:24:48;;;;;;;9.43;6.55;;;;;;;;;;5053165;28;20033;-81
2022/07/07 06:27:13;;;;;;;8.93;5.97;;;;;;;;;;5053455;28;20027;-82
2022/07/07 06:29:38;;;;;;;7.70;6.60;;;;;;;;;;5036042;28;20547;-81
2022/07/07 06:32:04;;;;;;;8.32;6.25;;;;;;;;;;5054481;28;20036;-81
2022/07/07 06:34:30;;;;;;;8.75;6.70;;;;;;;;;;5052845;28;20040;-81
2022/07/07 06:36:55;;;;;;;10.15;6.65;;;;;;;;;;5033191;28;20480;-82
2022/07/07 06:39:21;;;;;;;9.15;6.47;;;;;;;;;;5047200;28;20045;-83
2022/07/07 06:41:47;;;;;;;7.97;6.18;;;;;;;;;;5046400;28;20566;-83
2022/07/07 06:44:12;;;;;;;10.70;6.65;;;;;;;;;;5046666;28;20072;-83
2022/07/07 06:46:39;;;;;;;7.90;6.28;;;;;;;;;;5035652;28;20017;-84
2022/07/07 06:49:05;;;;;;;8.77;6.60;;;;;;;;;;5033611;28;20065;-83
2022/07/07 06:51:30;;;;;;;6.90;5.90;;;;;;;;;;5033633;28;20052;-83
2022/07/07 06:53:56;;;;;;;7.57;6.28;;;;;;;;;;5013565;28;20034;-83
2022/07/07 06:56:21;;;;;;;8.85;6.20;;;;;;;;;;5033428;28;20021;-82
2022/07/07 06:58:47;;;;;;;7.68;6.32;;;;;;;;;;5016207;28;20037;-81
2022/07/07 07:01:12;;;;;;;8.32;6.80;;;;;;;;;;5016614;28;20037;-82
2022/07/07 07:03:38;;;;;;;7.07;6.38;;;;;;;;;;5034099;28;20141;-82
2022/07/07 07:06:04;;;;;;;9.40;5.90;;;;;;;;;;5034540;28;20091;-82
2022/07/07 07:08:29;;;;;;;6.90;6.18;;;;;;;;;;5033251;28;20076;-81
2022/07/07 07:10:55;;;;;;;7.97;6.18;;;;;;;;;;5014284;28;20492;-83
2022/07/07 07:13:20;;;;;;;10.40;5.97;;;;;;;;;;5016712;28;20029;-82
2022/07/07 07:15:46;;;;;;;7.47;6.20;;;;;;;;;;5035035;28;20025;-81
2022/07/07 07:18:11;;;;;;;6.60;5.90;;;;;;;;;;5035415;28;20033;-83
2022/07/07 07:20:37;;;;;;;7.22;5.88;;;;;;;;;;5033775;28;20049;-82
2022/07/07 07:23:02;;;;;;;8.98;6.32;;;;;;;;;;5034011;28;20038;-83
2022/07/07 07:25:28;;;;;;;9.13;6.50;;;;;;;;;;5017790;28;20025;-82
2022/07/07 07:27:53;;;;;;;8.60;6.38;;;;;;;;;;5033497;28;20484;-82
2022/07/07 07:30:19;;;;;;;10.75;6.55;;;;;;;;;;5033722;28;20556;-81
2022/07/07 07:32:44;;;;;;;10.38;6.25;;;;;;;;;;5034107;28;20025;-83
2022/07/07 07:35:10;;;;;;;8.80;6.07;;;;;;;;;;5035875;28;20400;-83
2022/07/07 07:37:38;;;;;;;7.68;6.20;;;;;;;;;;5033638;28;20044;-81
2022/07/07 07:40:05;;;;;;;9.30;6.22;;;;;;;;;;5021975;28;20025;-83
2022/07/07 07:42:30;;;;;;;9.32;6.40;;;;;;;;;;5051855;28;20496;-81
2022/07/07 07:45:11;;;;;;;7.90;6.38;;;;;;;;;;5051138;28;20055;-82
2022/07/07 07:47:37;;;;;;;8.55;6.35;;;;;;;;;;5050534;28;20045;-83
2022/07/07 07:50:03;;;;;;;10.52;6.47;;;;;;;;;;5051140;28;20124;-82
2022/07/07 07:52:28;;;;;;;8.23;6.28;;;;;;;;;;5033873;28;20112;-82
2022/07/07 07:54:54;;;;;;;7.32;6.40;;;;;;;;;;5051010;28;20549;-81
2022/07/07 07:57:19;;;;;;;9.15;6.75;;;;;;;;;;5051548;28;20131;-82
2022/07/07 07:59:45;;;;;;;11.25;6.00;;;;;;;;;;5052315;28;20078;-83
2022/07/07 08:02:11;;;;;;;9.10;6.40;;;;;;;;;;5050272;28;20040;-82
2022/07/07 08:04:36;;;;;;;13.07;6.55;;;;;;;;;;5035413;28;20061;-83
2022/07/07 08:07:02;;;;;;;6.38;5.55;;;;;;;;;;5051506;28;20056;-82
2022/07/07 08:09:28;;;;;;;7.95;6.13;;;;;;;;;;5052033;28;20055;-82
2022/07/07 08:11:53;;;;;;;8.68;6.38;;;;;;;;;;5051804;28;20517;-82
2022/07/07 08:14:18;;;;;;;10.10;6.10;;;;;;;;;;5034224;28;20557;-82
2022/07/07 08:16:44;;;;;;;10.02;6.13;;;;;;;;;;5050384;28;20032;-82
2022/07/07 08:19:09;;;;;;;8.73;5.45;;;;;;;;;;5051002;28;20067;-81
2022/07/07 08:21:35;;;;;;;7.35;5.72;;;;;;;;;;5049898;28;20099;-84
2022/07/07 08:24:01;;;;;;;6.88;5.22;;;;;;;;;;5034498;28;20033;-83
2022/07/07 08:26:26;;;;;;;6.90;5.78;;;;;;;;;;5050408;28;20116;-85
2022/07/07 08:28:52;;;;;;;11.23;6.10;;;;;;;;;;5051907;28;20039;-82
2022/07/07 08:31:17;;;;;;;9.80;6.38;;;;;;;;;;5050928;28;20534;-81
2022/07/07 08:33:42;;;;;;;7.65;6.05;;;;;;;;;;5033690;28;20028;-82
2022/07/07 08:36:08;;;;;;;8.73;6.20;;;;;;;;;;5048214;28;20040;-82
2022/07/07 08:38:33;;;;;;;8.63;6.20;;;;;;;;;;5032621;28;20055;-82
2022/07/07 08:40:59;;;;;;;8.10;6.10;;;;;;;;;;5032346;28;20134;-83
2022/07/07 08:43:24;;;;;;;10.32;6.03;;;;;;;;;;5031515;28;20102;-81
2022/07/07 08:45:50;;;;;;;8.43;6.35;;;;;;;;;;5032051;28;20071;-82
2022/07/07 08:48:15;;;;;;;8.60;6.13;;;;;;;;;;5031329;28;20037;-81
2022/07/07 08:50:41;;;;;;;8.50;5.82;;;;;;;;;;5031247;28;20041;-82
2022/07/07 08:53:07;;;;;;;8.15;6.07;;;;;;;;;;5031875;28;20112;-82
2022/07/07 08:55:32;;;;;;;9.43;5.85;;;;;;;;;;5031825;28;20040;-82
2022/07/07 08:57:58;;;;;;;9.93;5.60;;;;;;;;;;5011790;28;20034;-82
2022/07/07 09:00:23;;;;;;;6.78;6.03;;;;;;;;;;5008702;28;20504;-80
2022/07/07 09:02:49;;;;;;;8.85;5.45;;;;;;;;;;5032002;28;20036;-82
2022/07/07 09:05:15;;;;;;;7.82;5.82;;;;;;;;;;5031312;28;20037;-83
2022/07/07 09:07:50;;;;;;;7.13;5.05;;;;;;;;;;5014336;28;20036;-82
2022/07/07 09:10:26;;;;;;;5.40;4.90;;;;;;;;;;5030647;28;20408;-82
2022/07/07 09:12:52;;;;;;;6.45;5.03;;;;;;;;;;5031779;28;20042;-81
2022/07/07 09:15:17;;;;;;;8.65;5.82;;;;;;;;;;5031501;28;20372;-83
2022/07/07 09:17:43;;;;;;;6.88;5.70;;;;;;;;;;5031570;28;20439;-82
2022/07/07 09:20:10;;;;;;;8.07;5.50;;;;;;;;;;5031106;28;20028;-82
2022/07/07 09:22:42;;;;;;;6.80;5.13;;;;;;;;;;5030896;28;20091;-82
2022/07/07 09:25:08;;;;;;;6.95;5.40;;;;;;;;;;5032826;28;20037;-83
2022/07/07 09:27:35;;;;;;;5.88;5.13;;;;;;;;;;5034829;28;20485;-81
2022/07/07 09:30:01;;;;;;;6.82;4.95;;;;;;;;;;5015747;28;20037;-83
2022/07/07 09:32:26;;;;;;;5.93;4.97;;;;;;;;;;5025644;28;20082;-82
2022/07/07 09:34:52;;;;;;;13.73;5.10;;;;;;;;;;5035094;28;20029;-82
2022/07/07 09:40:02;;;;;;;8.48;6.25;;;;;;;;;;5053339;28;20041;-82
2022/07/07 09:42:29;;;;;;;6.40;5.28;;;;;;;;;;5020608;28;20078;-83
2022/07/07 09:44:55;;;;;;;6.25;4.85;;;;;;;;;;5053205;28;20040;-82
2022/07/07 09:47:21;;;;;;;7.32;4.88;;;;;;;;;;5055497;28;20078;-82
2022/07/07 09:49:57;;;;;;;5.55;5.00;;;;;;;;;;5053057;28;20116;-86
2022/07/07 09:52:22;;;;;;;5.60;4.85;;;;;;;;;;5036519;28;20029;-82
2022/07/07 09:54:48;;;;;;;5.43;4.50;;;;;;;;;;5055649;28;20146;-83
2022/07/07 09:57:14;;;;;;;8.68;5.20;;;;;;;;;;5035863;28;20128;-81
2022/07/07 09:59:41;;;;;;;6.63;5.15;;;;;;;;;;5054411;28;20036;-82
2022/07/07 10:02:08;;;;;;;5.53;5.00;;;;;;;;;;5053544;28;20037;-82
2022/07/07 10:04:34;;;;;;;8.35;5.07;;;;;;;;;;5036885;28;20442;-83
2022/07/07 10:06:59;;;;;;;5.60;4.57;;;;;;;;;;5034735;28;20040;-83
2022/07/07 10:09:25;;;;;;;5.47;4.70;;;;;;;;;;5041144;28;20239;-83
2022/07/07 10:11:51;;;;;;;5.30;4.55;;;;;;;;;;5036219;28;20143;-83
2022/07/07 10:14:21;;;;;;;5.47;4.90;;;;;;;;;;5055035;28;20495;-83
2022/07/07 10:16:47;;;;;;;5.80;4.97;;;;;;;;;;5053234;28;20414;-82
2022/07/07 10:19:13;;;;;;;5.80;5.20;;;;;;;;;;5025490;28;20405;-84
2022/07/07 10:21:46;;;;;;;5.70;4.97;;;;;;;;;;5029598;28;20496;-82
2022/07/07 10:24:11;;;;;;;7.07;5.05;;;;;;;;;;5034338;28;20033;-83
2022/07/07 10:26:38;;;;;;;7.03;4.78;;;;;;;;;;5049706;28;20086;-82
2022/07/07 10:29:03;;;;;;;5.75;5.03;;;;;;;;;;5053099;28;20124;-83
2022/07/07 10:31:29;;;;;;;8.20;5.32;;;;;;;;;;5035523;28;20100;-83
2022/07/07 10:33:57;;;;;;;6.50;5.00;;;;;;;;;;5036406;28;20036;-83
2022/07/07 10:36:23;;;;;;;6.60;4.82;;;;;;;;;;5049356;28;20468;-83
2022/07/07 10:38:50;;;;;;;6.03;5.15;;;;;;;;;;5033437;28;20029;-83
2022/07/07 10:41:17;;;;;;;6.18;4.88;;;;;;;;;;5033868;28;20033;-81
2022/07/07 10:43:43;;;;;;;7.18;5.35;;;;;;;;;;5033600;28;20034;-83
2022/07/07 10:46:09;;;;;;;7.90;5.20;;;;;;;;;;5034043;28;20046;-83
2022/07/07 10:48:43;;;;;;;6.15;5.00;;;;;;;;;;5034003;28;20042;-84
2022/07/07 10:51:18;;;;;;;9.50;5.20;;;;;;;;;;5034937;28;20116;-83
2022/07/07 10:53:57;;;;;;;8.38;5.13;;;;;;;;;;5034091;28;20029;-83
2022/07/07 10:56:23;;;;;;;5.53;4.85;;;;;;;;;;5031927;28;20065;-81
2022/07/07 10:58:55;;;;;;;8.23;5.03;;;;;;;;;;5032840;28;20084;-82
2022/07/07 11:01:24;;;;;;;7.95;5.45;;;;;;;;;;5021806;28;20044;-82
2022/07/07 11:03:50;;;;;;;9.48;5.43;;;;;;;;;;5033439;28;20524;-83
2022/07/07 11:06:15;;;;;;;5.32;4.82;;;;;;;;;;5033027;28;20037;-82
2022/07/07 11:08:41;;;;;;;7.55;5.30;;;;;;;;;;5034098;28;20061;-83
2022/07/07 11:11:07;;;;;;;7.70;4.75;;;;;;;;;;5052521;28;20039;-82
2022/07/07 11:13:32;;;;;;;6.80;4.63;;;;;;;;;;5039900;28;20144;-83
2022/07/07 11:16:07;;;;;;;6.30;4.40;;;;;;;;;;5053653;28;20025;-82
2022/07/07 11:18:35;;;;;;;5.78;4.82;;;;;;;;;;5053483;28;20057;-85
2022/07/07 11:21:01;;;;;;;5.82;4.85;;;;;;;;;;5053656;28;20040;-82
2022/07/07 11:23:43;;;;;;;5.68;5.15;;;;;;;;;;5037663;28;20021;-84
2022/07/07 11:26:09;;;;;;;5.60;5.03;;;;;;;;;;5033022;28;20037;-83
2022/07/07 11:28:35;;;;;;;6.65;5.47;;;;;;;;;;5051391;28;20050;-83
2022/07/07 11:31:01;;;;;;;6.32;4.85;;;;;;;;;;5052909;28;20032;-82
2022/07/07 11:33:26;;;;;;;7.47;4.90;;;;;;;;;;5052989;28;20017;-82
2022/07/07 11:35:52;;;;;;;7.32;5.90;;;;;;;;;;5052333;28;20120;-83
2022/07/07 11:38:17;;;;;;;7.55;5.43;;;;;;;;;;5039453;28;20021;-83
2022/07/07 11:40:43;;;;;;;7.68;5.95;;;;;;;;;;5053371;28;20064;-82
2022/07/07 11:43:26;;;;;;;7.10;5.60;;;;;;;;;;5035025;28;20032;-82
2022/07/07 11:45:52;;;;;;;10.98;5.57;;;;;;;;;;5033233;28;20037;-84
2022/07/07 11:48:18;;;;;;;8.23;5.63;;;;;;;;;;5031338;28;20033;-83
2022/07/07 11:50:45;;;;;;;8.02;5.65;;;;;;;;;;5031525;28;20041;-83
2022/07/07 11:53:11;;;;;;;8.88;6.20;;;;;;;;;;5032057;28;20021;-82
2022/07/07 11:55:36;;;;;;;7.88;5.43;;;;;;;;;;5031712;28;20041;-82
2022/07/07 11:58:03;;;;;;;9.77;5.68;;;;;;;;;;5033178;28;20036;-84
2022/07/07 12:00:29;;;;;;;6.32;5.40;;;;;;;;;;5033422;28;20536;-83
2022/07/07 12:02:56;;;;;;;9.45;6.22;;;;;;;;;;5032256;28;20029;-82
2022/07/07 12:05:25;;;;;;;8.48;5.97;;;;;;;;;;5015789;28;20060;-83
2022/07/07 12:07:58;;;;;;;6.32;5.68;;;;;;;;;;5032893;28;20540;-83
2022/07/07 12:10:27;;;;;;;9.07;5.90;;;;;;;;;;5034564;28;20132;-83
2022/07/07 12:12:53;;;;;;;10.50;5.93;;;;;;;;;;5052608;28;20116;-82
2022/07/07 12:15:19;;;;;;;12.18;6.30;;;;;;;;;;5034424;28;20079;-82
2022/07/07 12:17:44;;;;;;;14.88;6.90;;;;;;;;;;5053059;28;20024;-82
2022/07/07 12:20:16;;;;;;;13.30;7.45;;;;;;;;;;5036287;28;20090;-83
2022/07/07 12:22:45;;;;;;;12.75;7.30;;;;;;;;;;5031787;28;20037;-82
2022/07/07 12:25:11;;;;;;;9.85;7.20;;;;;;;;;;5033574;28;20022;-83
2022/07/07 12:27:55;;;;;;;9.75;6.03;;;;;;;;;;5031582;28;20106;-84
2022/07/07 12:30:21;;;;;;;10.55;6.13;;;;;;;;;;5033605;28;20389;-83
2022/07/07 12:32:47;;;;;;;6.05;5.20;;;;;;;;;;5013220;28;20033;-82
2022/07/07 12:35:25;;;;;;;9.38;4.78;;;;;;;;;;5032141;28;20034;-84
2022/07/07 12:37:51;;;;;;;7.18;4.65;;;;;;;;;;5032099;28;20508;-84
2022/07/07 12:40:16;;;;;;;6.03;4.45;;;;;;;;;;5032945;28;20082;-85
2022/07/07 12:42:43;;;;;;;7.47;3.90;;;;;;;;;;5015715;28;20042;-84
2022/07/07 12:45:12;;;;;;;11.20;4.72;;;;;;;;;;5013020;28;20037;-85
2022/07/07 12:47:43;;;;;;;6.53;4.15;;;;;;;;;;5017847;28;20041;-86
2022/07/07 12:50:09;;;;;;;8.57;5.07;;;;;;;;;;5043142;28;20091;-84
2022/07/07 12:52:34;;;;;;;10.43;5.20;;;;;;;;;;5016793;28;20274;-84
2022/07/07 12:55:07;;;;;;;6.63;4.60;;;;;;;;;;5025451;28;20026;-82
2022/07/07 12:57:32;;;;;;;6.28;3.80;;;;;;;;;;5014515;28;20037;-84
2022/07/07 12:59:58;;;;;;;6.07;4.20;;;;;;;;;;5041207;28;20032;-83
2022/07/07 13:02:23;;;;;;;5.93;4.20;;;;;;;;;;5051039;28;20048;-84
2022/07/07 13:04:49;;;;;;;4.28;3.50;;;;;;;;;;5051482;28;20028;-83
2022/07/07 13:07:14;;;;;;;4.68;3.60;;;;;;;;;;5053732;28;20041;-83
2022/07/07 13:09:40;;;;;;;4.70;3.25;;;;;;;;;;5051975;28;20053;-83
2022/07/07 13:12:11;;;;;;;6.95;4.22;;;;;;;;;;5033402;28;20050;-85
2022/07/07 13:14:37;;;;;;;6.10;4.03;;;;;;;;;;5051008;28;20373;-84
2022/07/07 13:17:02;;;;;;;5.13;3.83;;;;;;;;;;5048605;28;20032;-83
2022/07/07 13:19:29;;;;;;;5.47;3.88;;;;;;;;;;5051620;28;20043;-83
2022/07/07 13:21:54;;;;;;;7.18;4.03;;;;;;;;;;5032037;28;20029;-85
2022/07/07 13:24:20;;;;;;;7.85;4.43;;;;;;;;;;5033721;28;20037;-87
2022/07/07 13:26:45;;;;;;;6.43;4.90;;;;;;;;;;5031657;28;20415;-81
2022/07/07 13:29:11;;;;;;;7.07;5.10;;;;;;;;;;5050265;28;20093;-85
2022/07/07 13:31:41;;;;;;;7.00;4.65;;;;;;;;;;5016343;28;20021;-84
2022/07/07 13:34:07;;;;;;;6.43;4.85;;;;;;;;;;5017801;28;20025;-82
2022/07/07 13:36:32;;;;;;;7.28;4.80;;;;;;;;;;5025655;28;20018;-83
2022/07/07 13:38:58;;;;;;;7.88;5.15;;;;;;;;;;5024996;28;20120;-81
2022/07/07 13:41:23;;;;;;;11.13;5.65;;;;;;;;;;5050691;28;20035;-85
2022/07/07 13:43:49;;;;;;;6.00;4.57;;;;;;;;;;5041851;28;20122;-84
2022/07/07 13:46:14;;;;;;;10.98;5.03;;;;;;;;;;5031236;28;20021;-85
2022/07/07 13:48:40;;;;;;;6.85;5.88;;;;;;;;;;5031837;28;20033;-81
2022/07/07 13:51:05;;;;;;;8.15;5.90;;;;;;;;;;5032741;28;20029;-82
2022/07/07 13:53:31;;;;;;;7.28;5.00;;;;;;;;;;5033016;28;20041;-83
2022/07/07 13:55:56;;;;;;;9.15;6.22;;;;;;;;;;5014218;28;20108;-85
2022/07/07 13:58:22;;;;;;;8.25;6.35;;;;;;;;;;5011532;28;20120;-83
2022/07/07 14:00:53;;;;;;;7.95;6.05;;;;;;;;;;5031907;28;20385;-82
2022/07/07 14:03:18;;;;;;;8.50;5.90;;;;;;;;;;5051496;28;20040;-80
2022/07/07 14:05:44;;;;;;;9.32;6.40;;;;;;;;;;5046838;28;20040;-84
2022/07/07 14:08:09;;;;;;;8.65;6.85;;;;;;;;;;5030428;28;20054;-82
2022/07/07 14:10:35;;;;;;;10.25;6.18;;;;;;;;;;4997548;28;20076;-83
2022/07/07 14:13:00;;;;;;;7.60;5.25;;;;;;;;;;5033602;28;20044;-81
2022/07/07 14:15:26;;;;;;;8.30;5.70;;;;;;;;;;5036306;28;20036;-84
2022/07/07 14:17:52;;;;;;;6.88;5.43;;;;;;;;;;5015052;28;20100;-82
2022/07/07 14:20:18;;;;;;;8.10;5.45;;;;;;;;;;5032618;28;20160;-85
2022/07/07 14:22:43;;;;;;;7.80;5.53;;;;;;;;;;5036700;28;20080;-81
2022/07/07 14:25:09;;;;;;;7.82;5.22;;;;;;;;;;5036545;28;20040;-85
2022/07/07 14:27:34;;;;;;;8.77;5.40;;;;;;;;;;5018355;28;20500;-85
2022/07/07 14:30:00;;;;;;;8.60;5.53;;;;;;;;;;5018406;28;20026;-83
2022/07/07 14:32:29;;;;;;;7.75;6.32;;;;;;;;;;5014574;28;20036;-83
2022/07/07 14:34:54;;;;;;;8.75;5.80;;;;;;;;;;5015829;28;20125;-82
2022/07/07 14:37:20;;;;;;;6.72;4.88;;;;;;;;;;5034771;28;20488;-83